الصفحة الرئيسية
METAR-TAF:

METAR-TAF

مطار :

Sint Maarten, جزر الأنتيل الهولندية

مطار الأميرة جوليانا الدولي

دائرة عرض: 18-03N, خط طول: 063-07W, ارتفاع: 4 متر

مراقبة الطقس الحالي

تاريخ ووقت الإصدار 12 دقيقة قبل الساعة 11:00UTC
درجة الحرارة 25°درجة مئوية
الرطوبة 83%
ضغط 1017 hPa
الرؤية 10 كم أو أكثر
غيوم متفرقة على ارتفاع 1600 قدم, مزن ركامية عمودية.
زخات في الجوار

METAR: TNCM 161100Z 09005KIT 050V130 9999 VCSH SCT016TCU 25/22 Q1016 A3003 NOSIG RMK TCU W/ VCSH NE

زمن: 07:12 (11:12 UTC)

توقعات

تاريخ ووقت الإصدار 5ساعات و 37 دقيقة قبل الساعة 05:35UTC
التوقعات صالحة من16 الساعة 06 UTC إلى 17 الساعة 06 UTC
ريح 12 عقدة من الشرق
الرؤية: 10 كم
غيوم قليلة على ارتفاع 2200 قدم
من 16 الساعة 1500 UTC
ريح 12 عقدة من الشرق/الجنوب الشرقي
الرؤية: 10 كم
غيوم متفرقة على ارتفاع 2200 قدم

TAF: TNCM 160535Z 1606/1706 08012KT P6SM FEW022 FM161500 11012KT P6SM SCT022

أرصاد الطقس والتوقعات من أكثر من 4000 مطار (تقارير الطقس للمطار METAR والتنبؤ بالطقس بالمطارTAF).

المحطات المتاحة هي النقط الصفراء والحمراء على الخريطة.

حرك المؤشر فوق النقطة لمعرفة اسم المحطة.

ثم انقر لمعرفة أرصاد وتوقعات الطقس.

لتغيير الخارطة: اضغط على الأزرار الخضراء مع رمز الصليب الأسود للتكبير. على الزر الأخضر مع شرطة للتصغير، أو على الأسهم الخضراء للخرائط المجاورة.


METAR-TAF: